createdAt,value
2023-03-31T00:00:30.610Z,99972.66
2023-03-31T00:03:34.422Z,99970.81
2023-03-31T00:06:38.690Z,99954.28
2023-03-31T00:09:45.941Z,99947.31
2023-03-31T00:12:48.346Z,99927.44
2023-03-31T00:15:57.106Z,99882.59
2023-03-31T00:19:02.039Z,99929.41
2023-03-31T00:22:06.741Z,99953.59
2023-03-31T00:25:12.136Z,99948.09
2023-03-31T00:28:14.853Z,99943.97
2023-03-31T00:31:18.787Z,99954.19
2023-03-31T00:34:22.929Z,99929.25
2023-03-31T00:37:25.274Z,99948.75
2023-03-31T00:40:27.866Z,99920.78
2023-03-31T00:43:39.392Z,99938.22
2023-03-31T00:47:04.865Z,99943.72
2023-03-31T00:50:18.792Z,99936.16
2023-03-31T00:53:25.185Z,99944.88
2023-03-31T00:56:34.210Z,99940.03
2023-03-31T00:59:41.488Z,99940.41
2023-03-31T01:02:52.370Z,99935.69
2023-03-31T01:06:00.201Z,99905.50
2023-03-31T01:09:06.780Z,99932.00
2023-03-31T01:12:11.191Z,99905.72
2023-03-31T01:15:14.600Z,99925.44
2023-03-31T01:18:21.311Z,99923.25
2023-03-31T01:21:42.705Z,99918.56
2023-03-31T01:25:09.537Z,99924.44
2023-03-31T01:28:38.698Z,99916.84
2023-03-31T01:32:03.258Z,99919.84
2023-03-31T01:35:11.293Z,99921.56
2023-03-31T01:38:35.871Z,99919.84
2023-03-31T01:41:58.245Z,99924.44
2023-03-31T01:45:19.341Z,99922.72
2023-03-31T01:48:35.221Z,99925.37
2023-03-31T01:52:04.937Z,99896.94
2023-03-31T01:55:20.926Z,99916.22
2023-03-31T01:58:27.792Z,99917.34
2023-03-31T02:01:47.776Z,99922.41
2023-03-31T02:05:01.085Z,99898.31
2023-03-31T02:08:14.972Z,99931.69
2023-03-31T02:11:18.271Z,99924.47
2023-03-31T02:14:24.893Z,99904.50
2023-03-31T02:17:32.865Z,99895.09
2023-03-31T02:20:35.770Z,99909.53
2023-03-31T02:23:38.832Z,99888.19
2023-03-31T02:26:59.846Z,99890.50
2023-03-31T02:30:04.008Z,99905.78
2023-03-31T02:33:07.150Z,99911.50
2023-03-31T02:36:11.530Z,99917.34
2023-03-31T02:39:20.188Z,99915.28
2023-03-31T02:42:23.069Z,99915.63
2023-03-31T02:45:49.546Z,99906.78
2023-03-31T02:48:56.045Z,99885.19
2023-03-31T02:52:19.887Z,99900.59
2023-03-31T02:55:38.473Z,99897.84
2023-03-31T02:58:46.989Z,99897.38
2023-03-31T03:02:04.422Z,99902.87
2023-03-31T03:05:22.804Z,99900.13
2023-03-31T03:08:37.926Z,99890.97
2023-03-31T03:11:48.121Z,99866.84
2023-03-31T03:15:01.072Z,99901.84
2023-03-31T03:18:06.546Z,99897.69
2023-03-31T03:21:08.945Z,99897.59
2023-03-31T03:24:11.779Z,99874.53
2023-03-31T03:27:14.182Z,99889.53
2023-03-31T03:30:17.040Z,99863.37
2023-03-31T03:33:19.361Z,99872.69
2023-03-31T03:36:23.261Z,99867.28
2023-03-31T03:39:25.694Z,99870.38
2023-03-31T03:42:28.279Z,99880.47
2023-03-31T03:45:30.625Z,99873.94
2023-03-31T03:48:33.381Z,99878.75
2023-03-31T03:51:35.779Z,99880.56
2023-03-31T03:54:38.397Z,99896.75
2023-03-31T03:57:40.836Z,99887.59
2023-03-31T04:00:45.206Z,99901.81
2023-03-31T04:03:47.845Z,99878.50
2023-03-31T04:06:50.302Z,99901.00
2023-03-31T04:09:52.949Z,99879.19
2023-03-31T04:12:55.540Z,99892.03
2023-03-31T04:15:58.195Z,99907.84
2023-03-31T04:19:03.835Z,99892.75
2023-03-31T04:22:06.415Z,99887.25
2023-03-31T04:25:17.834Z,99865.66
2023-03-31T04:28:20.529Z,99884.00
2023-03-31T04:31:25.618Z,99825.22
2023-03-31T04:34:35.162Z,99871.59
2023-03-31T04:37:38.872Z,99869.53
2023-03-31T04:40:41.599Z,99891.56
2023-03-31T04:43:44.243Z,99874.00
2023-03-31T04:46:46.958Z,99856.63
2023-03-31T04:49:49.438Z,99849.88
2023-03-31T04:52:52.205Z,99836.44
2023-03-31T04:55:54.608Z,99854.56
2023-03-31T04:58:57.201Z,99877.53
2023-03-31T05:01:59.602Z,99853.88
2023-03-31T05:05:02.213Z,99865.66
2023-03-31T05:08:04.825Z,99869.66
2023-03-31T05:11:07.523Z,99867.41
2023-03-31T05:14:09.952Z,99870.59
2023-03-31T05:17:12.626Z,99853.50
2023-03-31T05:20:14.917Z,99859.84
2023-03-31T05:23:17.515Z,99816.81
2023-03-31T05:26:20.055Z,99861.56
2023-03-31T05:29:23.756Z,99860.91
2023-03-31T05:32:27.481Z,99863.06
2023-03-31T05:35:30.246Z,99854.94
2023-03-31T05:38:34.627Z,99862.97
2023-03-31T05:41:37.311Z,99860.09
2023-03-31T05:44:39.619Z,99852.88
2023-03-31T05:47:42.308Z,99838.22
2023-03-31T05:50:44.937Z,99845.06
2023-03-31T05:53:47.566Z,99848.72
2023-03-31T05:56:49.901Z,99849.88
2023-03-31T05:59:52.510Z,99827.84
2023-03-31T06:02:54.950Z,99841.22
2023-03-31T06:05:57.872Z,99837.41
2023-03-31T06:09:00.928Z,99828.88
2023-03-31T06:12:03.853Z,99820.63
2023-03-31T06:15:06.756Z,99839.69
2023-03-31T06:18:10.835Z,99814.88
2023-03-31T06:21:15.192Z,99834.84
2023-03-31T06:24:17.686Z,99829.97
2023-03-31T06:27:19.961Z,99830.97
2023-03-31T06:30:22.643Z,99814.88
2023-03-31T06:33:24.980Z,99833.22
2023-03-31T06:36:30.237Z,99819.41
2023-03-31T06:39:32.955Z,99836.22
2023-03-31T06:42:35.738Z,99834.97
2023-03-31T06:45:38.153Z,99808.84
2023-03-31T06:48:41.433Z,99805.28
2023-03-31T06:51:43.862Z,99834.37
2023-03-31T06:54:47.025Z,99820.56
2023-03-31T06:57:49.426Z,99823.16
2023-03-31T07:00:52.963Z,99832.91
2023-03-31T07:03:55.400Z,99822.12
2023-03-31T07:07:01.859Z,99808.72
2023-03-31T07:10:04.730Z,99831.81
2023-03-31T07:13:07.507Z,99819.31
2023-03-31T07:16:10.992Z,99822.75
2023-03-31T07:19:15.534Z,99835.53
2023-03-31T07:22:18.075Z,99753.53
2023-03-31T07:25:20.787Z,99829.94
2023-03-31T07:28:23.208Z,99826.37
2023-03-31T07:31:26.443Z,99821.28
2023-03-31T07:34:28.926Z,99820.28
2023-03-31T07:37:36.629Z,99795.69
2023-03-31T07:40:39.940Z,99793.56
2023-03-31T07:43:42.750Z,99781.09
2023-03-31T07:46:45.106Z,99804.31
2023-03-31T07:49:48.431Z,99773.66
2023-03-31T07:52:51.569Z,99782.25
2023-03-31T07:55:54.189Z,99792.59
2023-03-31T07:58:57.929Z,99723.97
2023-03-31T08:02:03.513Z,99792.72
2023-03-31T08:05:07.424Z,99787.31
2023-03-31T08:08:09.829Z,99783.81
2023-03-31T08:11:12.509Z,99788.59
2023-03-31T08:14:15.174Z,99783.53
2023-03-31T08:17:18.049Z,99758.13
2023-03-31T08:20:20.545Z,99774.06
2023-03-31T08:23:23.241Z,99769.03
2023-03-31T08:26:26.241Z,99759.53
2023-03-31T08:29:34.308Z,99743.31
2023-03-31T08:32:37.438Z,99761.25
2023-03-31T08:35:41.174Z,99755.28
2023-03-31T08:38:48.180Z,99748.97
2023-03-31T08:42:07.592Z,99729.41
2023-03-31T08:45:25.464Z,99740.59
2023-03-31T08:48:36.843Z,99733.81
2023-03-31T08:51:56.724Z,99729.84
2023-03-31T08:55:04.731Z,99727.34
2023-03-31T08:58:15.798Z,99719.34
2023-03-31T09:01:47.712Z,99715.41
2023-03-31T09:05:00.755Z,99709.03
2023-03-31T09:08:35.817Z,99708.22
2023-03-31T09:11:51.238Z,99700.19
2023-03-31T09:15:34.979Z,99690.56
2023-03-31T09:18:46.629Z,99696.13
2023-03-31T09:21:53.388Z,99673.09
2023-03-31T09:25:10.784Z,99676.75
2023-03-31T09:28:29.150Z,99669.34
2023-03-31T09:31:32.281Z,99678.38
2023-03-31T09:34:36.494Z,99661.53
2023-03-31T09:37:38.901Z,99655.38
2023-03-31T09:40:42.838Z,99654.84
2023-03-31T09:43:46.428Z,99650.91
2023-03-31T09:46:50.407Z,99639.66
2023-03-31T09:49:53.852Z,99645.47
2023-03-31T09:52:59.908Z,99651.59
2023-03-31T09:56:05.377Z,99640.78
2023-03-31T09:59:15.806Z,99632.28
2023-03-31T10:02:36.163Z,99615.69
2023-03-31T10:05:48.553Z,99613.69
2023-03-31T10:08:53.922Z,99609.50
2023-03-31T10:12:17.902Z,99618.28
2023-03-31T10:15:26.050Z,99603.72
2023-03-31T10:18:44.680Z,99587.94
2023-03-31T10:21:55.362Z,99599.06
2023-03-31T10:25:17.446Z,99569.88
2023-03-31T10:28:21.074Z,99579.31
2023-03-31T10:31:33.999Z,99580.66
2023-03-31T10:34:42.386Z,99590.88
2023-03-31T10:37:48.218Z,99559.31
2023-03-31T10:40:53.402Z,99563.97
2023-03-31T10:43:58.198Z,99565.84
2023-03-31T10:47:13.609Z,99547.03
2023-03-31T10:50:17.081Z,99566.41
2023-03-31T10:53:20.062Z,99544.59
2023-03-31T10:56:35.004Z,99559.16
2023-03-31T10:59:46.904Z,99567.03
2023-03-31T11:03:12.706Z,99564.53
2023-03-31T11:06:27.459Z,99551.37
2023-03-31T11:10:01.648Z,99545.34
2023-03-31T11:13:20.140Z,99547.94
2023-03-31T11:16:40.771Z,99532.00
2023-03-31T11:20:06.955Z,99545.22
2023-03-31T11:23:38.600Z,99537.44
2023-03-31T11:27:08.952Z,99528.25
2023-03-31T11:34:10.141Z,99516.88
2023-03-31T11:38:03.303Z,99495.16
2023-03-31T11:41:11.983Z,99479.72
2023-03-31T11:44:18.895Z,99455.81
2023-03-31T11:47:27.676Z,99427.22
2023-03-31T11:50:38.527Z,99441.69
2023-03-31T11:53:43.553Z,99438.53
2023-03-31T11:56:46.757Z,99428.94
2023-03-31T11:59:56.672Z,99428.22
2023-03-31T12:03:02.113Z,99429.87
2023-03-31T12:06:19.518Z,99425.88
2023-03-31T12:09:30.559Z,99420.25
2023-03-31T12:12:42.169Z,99408.25
2023-03-31T12:15:53.007Z,99396.38
2023-03-31T12:19:09.049Z,99404.66
2023-03-31T12:22:17.499Z,99374.19
2023-03-31T12:25:26.689Z,99394.75
2023-03-31T12:28:33.758Z,99366.16
2023-03-31T12:31:40.421Z,99369.22
2023-03-31T12:34:54.420Z,99382.59
2023-03-31T12:38:16.881Z,99360.47
2023-03-31T12:41:44.726Z,99381.09
2023-03-31T12:44:50.342Z,99363.56
2023-03-31T12:48:19.410Z,99367.84
2023-03-31T12:51:56.537Z,99348.53
2023-03-31T12:55:38.337Z,99345.31
2023-03-31T12:58:43.725Z,99347.75
2023-03-31T13:02:09.334Z,99320.63
2023-03-31T13:05:36.899Z,99322.28
2023-03-31T13:08:56.160Z,99323.66
2023-03-31T13:11:59.136Z,99348.97
2023-03-31T13:15:04.954Z,99322.03
2023-03-31T13:18:08.371Z,99295.75
2023-03-31T13:21:12.352Z,99284.53
2023-03-31T13:24:15.654Z,99277.41
2023-03-31T13:27:33.638Z,99283.81
2023-03-31T13:30:36.658Z,99281.75
2023-03-31T13:33:47.010Z,99287.13
2023-03-31T13:37:04.436Z,99253.63
2023-03-31T13:40:37.905Z,99237.84
2023-03-31T13:43:48.710Z,99256.84
2023-03-31T13:47:16.703Z,99220.38
2023-03-31T13:50:38.109Z,99216.78
2023-03-31T13:53:57.749Z,99217.56
2023-03-31T13:57:33.451Z,99228.44
2023-03-31T14:00:48.163Z,99247.59
2023-03-31T14:03:56.932Z,99213.44
2023-03-31T14:07:09.579Z,99217.44
2023-03-31T14:10:27.697Z,99187.28
2023-03-31T14:13:30.041Z,99201.53
2023-03-31T14:16:37.566Z,99176.91
2023-03-31T14:20:10.461Z,99182.03
2023-03-31T14:23:25.057Z,99181.66
2023-03-31T14:26:48.902Z,99166.94
2023-03-31T14:30:27.328Z,99132.34
2023-03-31T14:33:37.916Z,99115.19
2023-03-31T14:36:46.831Z,99134.09
2023-03-31T14:39:53.830Z,99132.37
2023-03-31T14:42:56.563Z,99119.25
2023-03-31T14:46:10.043Z,99102.13
2023-03-31T14:49:54.183Z,99141.47
2023-03-31T14:52:56.804Z,99118.81
2023-03-31T14:56:11.810Z,99091.88
2023-03-31T14:59:19.801Z,99108.13
2023-03-31T15:02:34.397Z,99084.06
2023-03-31T15:05:38.506Z,99099.63
2023-03-31T15:08:42.154Z,99092.69
2023-03-31T15:11:44.509Z,99091.97
2023-03-31T15:14:51.104Z,99091.22
2023-03-31T15:17:54.829Z,99107.06
2023-03-31T15:20:57.624Z,99083.34
2023-03-31T15:23:59.942Z,99089.69
2023-03-31T15:27:23.454Z,99077.34
2023-03-31T15:30:32.638Z,99083.38
2023-03-31T15:33:41.355Z,99027.16
2023-03-31T15:36:44.354Z,99107.25
2023-03-31T15:39:49.189Z,99068.47
2023-03-31T15:43:25.593Z,99070.91
2023-03-31T15:46:50.466Z,99080.06
2023-03-31T15:49:54.645Z,99071.75
2023-03-31T15:53:03.897Z,99056.34
2023-03-31T15:56:07.600Z,99028.22
2023-03-31T15:59:54.580Z,99040.16
2023-03-31T16:03:04.459Z,99042.19
2023-03-31T16:06:41.663Z,98987.13
2023-03-31T16:09:48.182Z,99044.22
2023-03-31T16:13:06.315Z,99047.00
2023-03-31T16:16:12.515Z,99026.37
2023-03-31T16:19:16.325Z,99024.03
2023-03-31T16:22:31.067Z,99007.00
2023-03-31T16:25:40.729Z,99017.72
2023-03-31T16:28:53.974Z,98993.97
2023-03-31T16:32:18.362Z,99035.19
2023-03-31T16:35:20.757Z,99007.06
2023-03-31T16:38:27.968Z,99030.06
2023-03-31T16:41:30.854Z,99025.31
2023-03-31T16:44:33.455Z,99079.56
2023-03-31T16:47:36.634Z,99034.00
2023-03-31T16:50:40.762Z,99062.94
2023-03-31T16:53:43.981Z,99066.09
2023-03-31T16:56:47.940Z,99074.44
2023-03-31T16:59:50.379Z,99072.78
2023-03-31T17:02:53.262Z,99062.87
2023-03-31T17:05:59.209Z,99014.12
2023-03-31T17:09:02.223Z,99065.28
2023-03-31T17:12:04.797Z,99059.31
2023-03-31T17:15:08.376Z,99055.28
2023-03-31T17:18:11.058Z,99072.72
2023-03-31T17:21:15.624Z,99055.28
2023-03-31T17:24:17.958Z,99042.59
2023-03-31T17:27:20.635Z,99077.41
2023-03-31T17:30:23.737Z,99082.59
2023-03-31T17:33:27.863Z,99060.34
2023-03-31T17:36:30.345Z,99047.25
2023-03-31T17:39:33.140Z,99048.84
2023-03-31T17:42:35.485Z,99071.81
2023-03-31T17:45:38.309Z,99051.19
2023-03-31T17:48:41.384Z,99069.41
2023-03-31T17:51:44.259Z,99063.03
2023-03-31T17:54:48.599Z,99047.22
2023-03-31T17:57:52.157Z,99065.06
2023-03-31T18:00:54.693Z,99057.06
2023-03-31T18:03:58.368Z,99051.13
2023-03-31T18:07:01.417Z,99078.87
2023-03-31T18:10:07.729Z,99070.13
2023-03-31T18:13:11.488Z,99078.84
2023-03-31T18:16:14.277Z,99082.41
2023-03-31T18:19:17.314Z,99052.25
2023-03-31T18:22:19.961Z,99047.91
2023-03-31T18:25:22.335Z,99062.59
2023-03-31T18:28:24.915Z,99058.22
2023-03-31T18:31:27.402Z,99047.87
2023-03-31T18:34:32.611Z,99066.09
2023-03-31T18:37:35.112Z,99072.00
2023-03-31T18:40:37.808Z,99069.25
2023-03-31T18:43:40.638Z,99062.91
2023-03-31T18:46:44.377Z,99066.78
2023-03-31T18:49:48.537Z,99048.09
2023-03-31T18:52:52.433Z,99076.63
2023-03-31T18:55:57.363Z,99075.00
2023-03-31T18:59:00.129Z,99070.63
2023-03-31T19:02:02.469Z,99065.00
2023-03-31T19:05:05.745Z,99067.38
2023-03-31T19:08:08.324Z,99084.03
2023-03-31T19:11:16.126Z,99075.28
2023-03-31T19:14:18.438Z,99097.47
2023-03-31T19:17:21.419Z,99097.47
2023-03-31T19:20:23.921Z,99090.31
2023-03-31T19:23:26.613Z,99095.00
2023-03-31T19:26:29.724Z,99096.19
2023-03-31T19:29:32.776Z,99088.66
2023-03-31T19:32:37.550Z,99092.59
2023-03-31T19:35:45.565Z,99083.84
2023-03-31T19:38:48.047Z,99083.06
2023-03-31T19:41:50.717Z,99066.31
2023-03-31T19:44:53.037Z,99086.84
2023-03-31T19:47:56.099Z,99085.25
2023-03-31T19:51:00.674Z,99088.31
2023-03-31T19:54:04.932Z,99091.03
2023-03-31T19:57:08.961Z,99051.72
2023-03-31T20:00:12.532Z,99079.50
2023-03-31T20:03:15.825Z,99058.78
2023-03-31T20:06:23.861Z,99063.53
2023-03-31T20:09:26.730Z,99065.41
2023-03-31T20:12:29.229Z,99045.00
2023-03-31T20:15:32.954Z,99062.47
2023-03-31T20:18:37.272Z,99065.56
2023-03-31T20:21:40.751Z,99035.34
2023-03-31T20:24:43.238Z,99053.53
2023-03-31T20:27:46.183Z,99051.91
2023-03-31T20:30:49.217Z,99048.31
2023-03-31T20:33:53.002Z,99029.97
2023-03-31T20:36:56.453Z,99045.16
2023-03-31T20:39:59.265Z,99041.53
2023-03-31T20:43:01.609Z,99011.75
2023-03-31T20:46:06.640Z,99008.16
2023-03-31T20:49:09.464Z,99014.03
2023-03-31T20:52:12.079Z,99024.78
2023-03-31T20:55:15.211Z,99023.22
2023-03-31T20:58:18.466Z,99021.62
2023-03-31T21:01:22.003Z,98997.81
2023-03-31T21:04:24.603Z,99008.91
2023-03-31T21:07:26.888Z,99010.50
2023-03-31T21:10:29.474Z,99019.19
2023-03-31T21:13:32.196Z,99006.56
2023-03-31T21:16:35.052Z,98983.50
2023-03-31T21:19:37.425Z,99008.13
2023-03-31T21:22:40.110Z,98976.44
2023-03-31T21:25:45.526Z,98988.41
2023-03-31T21:28:53.853Z,98982.75
2023-03-31T21:31:56.322Z,98965.34
2023-03-31T21:34:58.989Z,98966.16
2023-03-31T21:38:02.943Z,98938.34
2023-03-31T21:41:11.368Z,98985.91
2023-03-31T21:44:13.774Z,98988.25
2023-03-31T21:47:16.792Z,98984.72
2023-03-31T21:50:19.123Z,98971.59
2023-03-31T21:53:23.005Z,98986.66
2023-03-31T21:56:27.765Z,98996.16
2023-03-31T21:59:31.706Z,98996.16
2023-03-31T22:02:34.022Z,98991.44
2023-03-31T22:05:37.013Z,98985.84
2023-03-31T22:08:39.956Z,98963.59
2023-03-31T22:11:43.319Z,98988.91
2023-03-31T22:14:45.695Z,98965.72
2023-03-31T22:17:48.373Z,98970.44
2023-03-31T22:20:51.522Z,98975.25
2023-03-31T22:23:57.363Z,98966.56
2023-03-31T22:26:59.644Z,98984.03
2023-03-31T22:30:02.806Z,98973.81
2023-03-31T22:33:05.667Z,98986.38
2023-03-31T22:36:08.819Z,98956.34
2023-03-31T22:39:11.284Z,98970.53
2023-03-31T22:42:13.842Z,98945.91
2023-03-31T22:45:16.441Z,98947.44
2023-03-31T22:48:19.406Z,98949.03
2023-03-31T22:51:21.701Z,98968.97
2023-03-31T22:54:24.471Z,98949.81
2023-03-31T22:57:27.677Z,98975.69
2023-03-31T23:00:30.552Z,98966.56
2023-03-31T23:03:33.152Z,98977.53
2023-03-31T23:06:36.208Z,98960.97
2023-03-31T23:09:38.756Z,98937.97
2023-03-31T23:12:41.658Z,98932.31
2023-03-31T23:15:44.059Z,98956.13
2023-03-31T23:18:48.455Z,98934.66
2023-03-31T23:21:51.442Z,98948.28
2023-03-31T23:24:54.033Z,98926.31
2023-03-31T23:27:56.341Z,98931.34
2023-03-31T23:30:59.235Z,98946.47
2023-03-31T23:34:01.756Z,98930.47
2023-03-31T23:37:04.358Z,98951.19
2023-03-31T23:40:07.534Z,98961.38
2023-03-31T23:43:10.505Z,98944.63
2023-03-31T23:46:13.589Z,98952.09
2023-03-31T23:49:16.300Z,98965.16
2023-03-31T23:52:18.640Z,98973.00
2023-03-31T23:55:21.284Z,98956.16
2023-03-31T23:58:24.896Z,98963.78
